Terminal Aerodrome Forecast
Issued by NWS Cleveland, OH

Home | Current Version | Previous Version | Text Only | Print | Product List | Glossary On
Versions: 1 2 3 4 5 6 7 8 9 10 11 12 13 14 15 16 17
036
FTUS41 KCLE 221137
TAFERI
TAF
KERI 221137Z 2212/2312 VRB03KT P6SM SKC
     FM221500 05008KT P6SM SKC
     FM230500 12008KT P6SM SKC=

USA.gov is the U.S. government's official web portal to all federal, state and local government web resources and services.